sensor_id;sensor_type;location;lat;lon;timestamp;pressure;altitude;pressure_sealevel;temperature;humidity
75157;BME280;63736;50.076;8.198;2022-10-17T00:00:40;99931.50;;;13.70;100.00
75157;BME280;63736;50.076;8.198;2022-10-17T00:03:06;99928.97;;;13.69;100.00
75157;BME280;63736;50.076;8.198;2022-10-17T00:05:31;99938.88;;;13.68;100.00
75157;BME280;63736;50.076;8.198;2022-10-17T00:07:57;99939.84;;;13.67;100.00
75157;BME280;63736;50.076;8.198;2022-10-17T00:10:22;99950.72;;;13.66;100.00
75157;BME280;63736;50.076;8.198;2022-10-17T00:12:49;99941.97;;;13.64;100.00
75157;BME280;63736;50.076;8.198;2022-10-17T00:15:16;99950.00;;;13.64;100.00
75157;BME280;63736;50.076;8.198;2022-10-17T00:17:42;99952.13;;;13.60;100.00
75157;BME280;63736;50.076;8.198;2022-10-17T00:20:07;99952.25;;;13.59;100.00
75157;BME280;63736;50.076;8.198;2022-10-17T00:22:33;99945.19;;;13.58;100.00
75157;BME280;63736;50.076;8.198;2022-10-17T00:24:58;99947.19;;;13.55;100.00
75157;BME280;63736;50.076;8.198;2022-10-17T00:27:23;99950.00;;;13.54;100.00
75157;BME280;63736;50.076;8.198;2022-10-17T00:29:50;99946.59;;;13.52;100.00
75157;BME280;63736;50.076;8.198;2022-10-17T00:32:15;99950.53;;;13.48;100.00
75157;BME280;63736;50.076;8.198;2022-10-17T00:34:41;99959.88;;;13.44;100.00
75157;BME280;63736;50.076;8.198;2022-10-17T00:37:06;99969.72;;;13.43;100.00
75157;BME280;63736;50.076;8.198;2022-10-17T00:39:31;99968.31;;;13.39;100.00
75157;BME280;63736;50.076;8.198;2022-10-17T00:41:56;99965.78;;;13.37;100.00
75157;BME280;63736;50.076;8.198;2022-10-17T00:46:54;99971.38;;;13.34;100.00
75157;BME280;63736;50.076;8.198;2022-10-17T00:49:20;99968.13;;;13.31;100.00
75157;BME280;63736;50.076;8.198;2022-10-17T00:51:59;99967.97;;;13.32;100.00
75157;BME280;63736;50.076;8.198;2022-10-17T00:54:30;99970.66;;;13.32;100.00
75157;BME280;63736;50.076;8.198;2022-10-17T00:56:57;99974.31;;;13.31;100.00
75157;BME280;63736;50.076;8.198;2022-10-17T00:59:23;99977.88;;;13.32;100.00
75157;BME280;63736;50.076;8.198;2022-10-17T01:02:05;99981.25;;;13.34;100.00
75157;BME280;63736;50.076;8.198;2022-10-17T01:04:31;99973.63;;;13.29;100.00
75157;BME280;63736;50.076;8.198;2022-10-17T01:06:56;99969.94;;;13.30;100.00
75157;BME280;63736;50.076;8.198;2022-10-17T01:09:22;99967.13;;;13.32;100.00
75157;BME280;63736;50.076;8.198;2022-10-17T01:11:55;99965.28;;;13.32;100.00
75157;BME280;63736;50.076;8.198;2022-10-17T01:14:51;99969.44;;;13.36;100.00
75157;BME280;63736;50.076;8.198;2022-10-17T01:17:33;99979.44;;;13.34;100.00
75157;BME280;63736;50.076;8.198;2022-10-17T01:25:54;99980.22;;;13.25;100.00
75157;BME280;63736;50.076;8.198;2022-10-17T01:31:17;99976.13;;;13.21;100.00
75157;BME280;63736;50.076;8.198;2022-10-17T01:33:57;99976.56;;;13.26;100.00
75157;BME280;63736;50.076;8.198;2022-10-17T01:39:21;99969.72;;;13.43;100.00
75157;BME280;63736;50.076;8.198;2022-10-17T01:42:27;99969.88;;;13.42;100.00
75157;BME280;63736;50.076;8.198;2022-10-17T01:44:59;99978.22;;;13.38;100.00
75157;BME280;63736;50.076;8.198;2022-10-17T01:47:28;99974.66;;;13.38;100.00
75157;BME280;63736;50.076;8.198;2022-10-17T01:49:58;99975.53;;;13.38;100.00
75157;BME280;63736;50.076;8.198;2022-10-17T01:52:40;99979.91;;;13.40;100.00
75157;BME280;63736;50.076;8.198;2022-10-17T01:55:10;99970.31;;;13.37;100.00
75157;BME280;63736;50.076;8.198;2022-10-17T01:57:41;99971.88;;;13.40;100.00
75157;BME280;63736;50.076;8.198;2022-10-17T02:00:12;99968.75;;;13.44;100.00
75157;BME280;63736;50.076;8.198;2022-10-17T02:02:40;99969.34;;;13.48;100.00
75157;BME280;63736;50.076;8.198;2022-10-17T02:05:06;99964.81;;;13.48;100.00
75157;BME280;63736;50.076;8.198;2022-10-17T02:07:32;99961.00;;;13.51;100.00
75157;BME280;63736;50.076;8.198;2022-10-17T02:09:58;99955.50;;;13.52;100.00
75157;BME280;63736;50.076;8.198;2022-10-17T02:12:40;99961.88;;;13.51;100.00
75157;BME280;63736;50.076;8.198;2022-10-17T02:15:53;99959.00;;;13.43;100.00
75157;BME280;63736;50.076;8.198;2022-10-17T02:18:43;99967.69;;;13.35;100.00
75157;BME280;63736;50.076;8.198;2022-10-17T02:26:44;99966.34;;;13.10;100.00
75157;BME280;63736;50.076;8.198;2022-10-17T02:29:16;99966.88;;;13.04;100.00
75157;BME280;63736;50.076;8.198;2022-10-17T02:32:06;99970.66;;;13.01;100.00
75157;BME280;63736;50.076;8.198;2022-10-17T02:36:59;99963.72;;;12.89;100.00
75157;BME280;63736;50.076;8.198;2022-10-17T02:39:27;99966.78;;;12.84;100.00
75157;BME280;63736;50.076;8.198;2022-10-17T02:41:55;99965.94;;;12.84;100.00
75157;BME280;63736;50.076;8.198;2022-10-17T02:44:23;99959.84;;;12.82;100.00
75157;BME280;63736;50.076;8.198;2022-10-17T02:47:03;99963.50;;;12.81;100.00
75157;BME280;63736;50.076;8.198;2022-10-17T02:49:37;99967.19;;;12.80;100.00
75157;BME280;63736;50.076;8.198;2022-10-17T02:52:11;99968.84;;;12.81;100.00
75157;BME280;63736;50.076;8.198;2022-10-17T02:54:53;99973.00;;;12.85;100.00
75157;BME280;63736;50.076;8.198;2022-10-17T02:57:30;99965.78;;;12.85;100.00
75157;BME280;63736;50.076;8.198;2022-10-17T03:00:00;99974.56;;;12.87;100.00
75157;BME280;63736;50.076;8.198;2022-10-17T03:02:26;99973.56;;;12.88;100.00
75157;BME280;63736;50.076;8.198;2022-10-17T03:04:52;99968.94;;;12.91;100.00
75157;BME280;63736;50.076;8.198;2022-10-17T03:07:17;99966.09;;;12.92;100.00
75157;BME280;63736;50.076;8.198;2022-10-17T03:09:42;99968.66;;;12.94;100.00
75157;BME280;63736;50.076;8.198;2022-10-17T03:12:08;99971.19;;;12.95;100.00
75157;BME280;63736;50.076;8.198;2022-10-17T03:14:33;99968.09;;;12.90;100.00
75157;BME280;63736;50.076;8.198;2022-10-17T03:16:58;99985.16;;;12.89;100.00
75157;BME280;63736;50.076;8.198;2022-10-17T03:19:23;99979.19;;;12.85;100.00
75157;BME280;63736;50.076;8.198;2022-10-17T03:21:49;99975.94;;;12.82;100.00
75157;BME280;63736;50.076;8.198;2022-10-17T03:24:14;99981.56;;;12.79;100.00
75157;BME280;63736;50.076;8.198;2022-10-17T03:26:39;99986.47;;;12.73;100.00
75157;BME280;63736;50.076;8.198;2022-10-17T03:29:04;99988.28;;;12.73;100.00
75157;BME280;63736;50.076;8.198;2022-10-17T03:31:30;99988.28;;;12.73;100.00
75157;BME280;63736;50.076;8.198;2022-10-17T03:33:55;99998.16;;;12.72;100.00
75157;BME280;63736;50.076;8.198;2022-10-17T03:36:20;99993.53;;;12.75;100.00
75157;BME280;63736;50.076;8.198;2022-10-17T03:38:46;99996.31;;;12.73;100.00
75157;BME280;63736;50.076;8.198;2022-10-17T03:41:12;99992.53;;;12.76;100.00
75157;BME280;63736;50.076;8.198;2022-10-17T03:43:38;99997.38;;;12.82;100.00
75157;BME280;63736;50.076;8.198;2022-10-17T03:46:04;99998.09;;;12.84;100.00
75157;BME280;63736;50.076;8.198;2022-10-17T03:48:30;100000.06;;;12.82;100.00
75157;BME280;63736;50.076;8.198;2022-10-17T03:51:04;100006.97;;;12.84;100.00
75157;BME280;63736;50.076;8.198;2022-10-17T03:53:30;100019.78;;;12.81;100.00
75157;BME280;63736;50.076;8.198;2022-10-17T03:55:56;100011.66;;;12.82;100.00
75157;BME280;63736;50.076;8.198;2022-10-17T03:58:21;100014.19;;;12.84;100.00
75157;BME280;63736;50.076;8.198;2022-10-17T04:00:47;100014.66;;;12.89;100.00
75157;BME280;63736;50.076;8.198;2022-10-17T04:03:12;100020.91;;;12.99;100.00
75157;BME280;63736;50.076;8.198;2022-10-17T04:05:37;100017.97;;;13.02;100.00
75157;BME280;63736;50.076;8.198;2022-10-17T04:08:03;100015.59;;;13.09;100.00
75157;BME280;63736;50.076;8.198;2022-10-17T04:10:28;100021.28;;;13.16;100.00
75157;BME280;63736;50.076;8.198;2022-10-17T04:12:53;100021.72;;;13.21;100.00
75157;BME280;63736;50.076;8.198;2022-10-17T04:15:19;100024.25;;;13.22;100.00
75157;BME280;63736;50.076;8.198;2022-10-17T04:17:44;100023.16;;;13.25;100.00
75157;BME280;63736;50.076;8.198;2022-10-17T04:20:09;100019.94;;;13.31;100.00
75157;BME280;63736;50.076;8.198;2022-10-17T04:22:35;100020.53;;;13.35;100.00
75157;BME280;63736;50.076;8.198;2022-10-17T04:25:00;100023.09;;;13.36;100.00
75157;BME280;63736;50.076;8.198;2022-10-17T04:27:25;100026.72;;;13.35;100.00
75157;BME280;63736;50.076;8.198;2022-10-17T04:29:50;100027.97;;;13.31;100.00
75157;BME280;63736;50.076;8.198;2022-10-17T04:32:16;100032.75;;;13.28;100.00
75157;BME280;63736;50.076;8.198;2022-10-17T04:34:41;100049.41;;;13.21;100.00
75157;BME280;63736;50.076;8.198;2022-10-17T04:37:06;100047.25;;;13.15;100.00
75157;BME280;63736;50.076;8.198;2022-10-17T04:39:32;100037.19;;;13.08;100.00
75157;BME280;63736;50.076;8.198;2022-10-17T04:41:57;100034.19;;;13.01;100.00
75157;BME280;63736;50.076;8.198;2022-10-17T04:44:22;100032.47;;;13.00;100.00
75157;BME280;63736;50.076;8.198;2022-10-17T04:46:48;100033.47;;;12.99;100.00
75157;BME280;63736;50.076;8.198;2022-10-17T04:49:13;100031.06;;;12.96;100.00
75157;BME280;63736;50.076;8.198;2022-10-17T04:51:38;100044.47;;;12.96;100.00
75157;BME280;63736;50.076;8.198;2022-10-17T04:54:04;100051.25;;;13.00;100.00
75157;BME280;63736;50.076;8.198;2022-10-17T04:56:29;100037.00;;;12.99;100.00
75157;BME280;63736;50.076;8.198;2022-10-17T04:58:57;100037.84;;;13.00;100.00
75157;BME280;63736;50.076;8.198;2022-10-17T05:01:23;100032.75;;;12.97;100.00
75157;BME280;63736;50.076;8.198;2022-10-17T05:03:49;100030.31;;;12.94;100.00
75157;BME280;63736;50.076;8.198;2022-10-17T05:06:20;100029.22;;;12.96;100.00
75157;BME280;63736;50.076;8.198;2022-10-17T05:08:46;100024.97;;;12.94;100.00
75157;BME280;63736;50.076;8.198;2022-10-17T05:13:44;100030.53;;;13.02;100.00
75157;BME280;63736;50.076;8.198;2022-10-17T05:16:13;100034.66;;;13.06;100.00
75157;BME280;63736;50.076;8.198;2022-10-17T05:18:38;100043.28;;;13.10;100.00
75157;BME280;63736;50.076;8.198;2022-10-17T05:21:03;100044.25;;;13.09;100.00
75157;BME280;63736;50.076;8.198;2022-10-17T05:23:29;100045.22;;;13.08;100.00
75157;BME280;63736;50.076;8.198;2022-10-17T05:25:55;100050.75;;;13.06;100.00
75157;BME280;63736;50.076;8.198;2022-10-17T05:28:21;100055.66;;;13.01;100.00
75157;BME280;63736;50.076;8.198;2022-10-17T05:30:46;100055.06;;;12.97;100.00
75157;BME280;63736;50.076;8.198;2022-10-17T05:33:11;100045.44;;;12.95;100.00
75157;BME280;63736;50.076;8.198;2022-10-17T05:35:36;100041.50;;;12.99;100.00
75157;BME280;63736;50.076;8.198;2022-10-17T05:38:02;100052.22;;;12.99;100.00
75157;BME280;63736;50.076;8.198;2022-10-17T05:40:27;100047.84;;;12.98;100.00
75157;BME280;63736;50.076;8.198;2022-10-17T05:42:52;100053.19;;;12.98;100.00
75157;BME280;63736;50.076;8.198;2022-10-17T05:45:18;100052.50;;;12.96;100.00
75157;BME280;63736;50.076;8.198;2022-10-17T05:47:43;100055.06;;;12.97;100.00
75157;BME280;63736;50.076;8.198;2022-10-17T05:50:09;100058.06;;;13.04;100.00
75157;BME280;63736;50.076;8.198;2022-10-17T05:52:35;100047.91;;;13.08;100.00
75157;BME280;63736;50.076;8.198;2022-10-17T05:55:00;100051.88;;;13.13;100.00
75157;BME280;63736;50.076;8.198;2022-10-17T05:57:25;100059.94;;;13.13;100.00
75157;BME280;63736;50.076;8.198;2022-10-17T05:59:51;100049.22;;;13.13;100.00
75157;BME280;63736;50.076;8.198;2022-10-17T06:02:16;100057.16;;;13.15;100.00
75157;BME280;63736;50.076;8.198;2022-10-17T06:04:41;100051.22;;;13.21;100.00
75157;BME280;63736;50.076;8.198;2022-10-17T06:07:10;100053.66;;;13.24;100.00
75157;BME280;63736;50.076;8.198;2022-10-17T06:09:35;100059.72;;;13.26;100.00
75157;BME280;63736;50.076;8.198;2022-10-17T06:12:01;100065.69;;;13.30;100.00
75157;BME280;63736;50.076;8.198;2022-10-17T06:14:26;100077.69;;;13.35;100.00
75157;BME280;63736;50.076;8.198;2022-10-17T06:16:51;100081.75;;;13.41;100.00
75157;BME280;63736;50.076;8.198;2022-10-17T06:19:16;100080.06;;;13.50;100.00
75157;BME280;63736;50.076;8.198;2022-10-17T06:21:42;100071.34;;;13.58;100.00
75157;BME280;63736;50.076;8.198;2022-10-17T06:24:07;100078.47;;;13.68;100.00
75157;BME280;63736;50.076;8.198;2022-10-17T06:26:32;100085.41;;;13.81;100.00
75157;BME280;63736;50.076;8.198;2022-10-17T06:28:58;100083.03;;;13.87;100.00
75157;BME280;63736;50.076;8.198;2022-10-17T06:31:23;100080.53;;;13.96;100.00
75157;BME280;63736;50.076;8.198;2022-10-17T06:33:48;100072.78;;;14.02;100.00
75157;BME280;63736;50.076;8.198;2022-10-17T06:36:13;100073.66;;;14.13;100.00
75157;BME280;63736;50.076;8.198;2022-10-17T06:38:39;100090.91;;;14.20;100.00
75157;BME280;63736;50.076;8.198;2022-10-17T06:41:13;100078.22;;;14.81;100.00
75157;BME280;63736;50.076;8.198;2022-10-17T06:43:40;100089.38;;;16.00;100.00
75157;BME280;63736;50.076;8.198;2022-10-17T06:46:08;100082.81;;;17.29;100.00
75157;BME280;63736;50.076;8.198;2022-10-17T06:48:33;100096.31;;;18.41;100.00
75157;BME280;63736;50.076;8.198;2022-10-17T06:51:00;100097.72;;;19.28;100.00
75157;BME280;63736;50.076;8.198;2022-10-17T06:53:30;100096.06;;;19.91;100.00
75157;BME280;63736;50.076;8.198;2022-10-17T06:55:56;100094.16;;;20.86;100.00
75157;BME280;63736;50.076;8.198;2022-10-17T06:58:37;100105.38;;;21.89;100.00
75157;BME280;63736;50.076;8.198;2022-10-17T07:01:07;100094.69;;;22.39;100.00
75157;BME280;63736;50.076;8.198;2022-10-17T07:03:33;100114.56;;;22.98;100.00
75157;BME280;63736;50.076;8.198;2022-10-17T07:05:58;100104.38;;;23.64;100.00
75157;BME280;63736;50.076;8.198;2022-10-17T07:08:24;100100.47;;;24.21;100.00
75157;BME280;63736;50.076;8.198;2022-10-17T07:10:50;100111.50;;;24.48;100.00
75157;BME280;63736;50.076;8.198;2022-10-17T07:13:16;100118.66;;;24.63;99.64
75157;BME280;63736;50.076;8.198;2022-10-17T07:15:41;100119.56;;;25.03;92.44
75157;BME280;63736;50.076;8.198;2022-10-17T07:18:07;100118.91;;;25.68;88.16
75157;BME280;63736;50.076;8.198;2022-10-17T07:20:32;100122.00;;;25.99;85.41
75157;BME280;63736;50.076;8.198;2022-10-17T07:22:58;100128.19;;;26.39;83.22
75157;BME280;63736;50.076;8.198;2022-10-17T07:25:23;100134.91;;;26.82;81.74
75157;BME280;63736;50.076;8.198;2022-10-17T07:27:49;100133.00;;;27.40;75.02
75157;BME280;63736;50.076;8.198;2022-10-17T07:30:15;100131.47;;;27.88;72.75
75157;BME280;63736;50.076;8.198;2022-10-17T07:32:42;100130.28;;;28.51;67.94
75157;BME280;63736;50.076;8.198;2022-10-17T07:35:08;100138.31;;;28.83;67.07
75157;BME280;63736;50.076;8.198;2022-10-17T07:37:33;100146.31;;;29.39;62.69
75157;BME280;63736;50.076;8.198;2022-10-17T07:39:59;100143.22;;;29.59;60.88
75157;BME280;63736;50.076;8.198;2022-10-17T07:42:24;100140.66;;;30.05;59.86
75157;BME280;63736;50.076;8.198;2022-10-17T07:44:49;100139.81;;;30.45;56.70
75157;BME280;63736;50.076;8.198;2022-10-17T07:47:15;100145.06;;;30.59;55.32
75157;BME280;63736;50.076;8.198;2022-10-17T07:49:40;100142.03;;;30.72;54.06
75157;BME280;63736;50.076;8.198;2022-10-17T07:52:11;100145.06;;;30.59;54.12
75157;BME280;63736;50.076;8.198;2022-10-17T07:54:37;100148.72;;;29.95;55.21
75157;BME280;63736;50.076;8.198;2022-10-17T07:57:02;100150.09;;;29.14;58.44
75157;BME280;63736;50.076;8.198;2022-10-17T07:59:28;100146.34;;;28.36;62.07
75157;BME280;63736;50.076;8.198;2022-10-17T08:01:56;100157.09;;;27.82;64.52
75157;BME280;63736;50.076;8.198;2022-10-17T08:04:21;100156.31;;;27.24;66.73
75157;BME280;63736;50.076;8.198;2022-10-17T08:06:48;100149.50;;;26.76;67.78
75157;BME280;63736;50.076;8.198;2022-10-17T08:09:14;100145.97;;;26.24;71.71
75157;BME280;63736;50.076;8.198;2022-10-17T08:11:39;100154.19;;;26.17;73.47
75157;BME280;63736;50.076;8.198;2022-10-17T08:14:05;100156.06;;;26.30;71.88
75157;BME280;63736;50.076;8.198;2022-10-17T08:16:30;100150.19;;;26.58;69.35
75157;BME280;63736;50.076;8.198;2022-10-17T08:18:56;100153.00;;;27.15;66.44
75157;BME280;63736;50.076;8.198;2022-10-17T08:21:21;100143.06;;;27.46;62.54
75157;BME280;63736;50.076;8.198;2022-10-17T08:23:46;100151.31;;;27.21;61.87
75157;BME280;63736;50.076;8.198;2022-10-17T08:26:12;100157.66;;;26.83;61.84
75157;BME280;63736;50.076;8.198;2022-10-17T08:28:40;100146.16;;;26.67;62.80
75157;BME280;63736;50.076;8.198;2022-10-17T08:31:12;100155.03;;;27.01;61.93
75157;BME280;63736;50.076;8.198;2022-10-17T08:33:39;100151.38;;;27.40;59.76
75157;BME280;63736;50.076;8.198;2022-10-17T08:36:05;100154.75;;;27.42;58.95
75157;BME280;63736;50.076;8.198;2022-10-17T08:38:32;100155.09;;;27.20;60.17
75157;BME280;63736;50.076;8.198;2022-10-17T08:41:00;100144.13;;;26.95;60.84
75157;BME280;63736;50.076;8.198;2022-10-17T08:46:38;100137.94;;;26.74;62.11
75157;BME280;63736;50.076;8.198;2022-10-17T08:49:10;100144.72;;;26.97;61.99
75157;BME280;63736;50.076;8.198;2022-10-17T08:51:47;100153.25;;;27.64;58.76
75157;BME280;63736;50.076;8.198;2022-10-17T08:54:19;100141.97;;;28.47;55.73
75157;BME280;63736;50.076;8.198;2022-10-17T08:56:51;100150.97;;;29.27;53.24
75157;BME280;63736;50.076;8.198;2022-10-17T08:59:24;100151.22;;;30.08;49.52
75157;BME280;63736;50.076;8.198;2022-10-17T09:02:12;100152.16;;;30.55;47.10
75157;BME280;63736;50.076;8.198;2022-10-17T09:07:43;100148.94;;;30.58;48.00
75157;BME280;63736;50.076;8.198;2022-10-17T09:12:49;100152.78;;;30.45;48.18
75157;BME280;63736;50.076;8.198;2022-10-17T09:18:32;100154.00;;;29.49;50.89
75157;BME280;63736;50.076;8.198;2022-10-17T09:23:48;100154.72;;;28.41;53.86
75157;BME280;63736;50.076;8.198;2022-10-17T09:26:14;100155.84;;;28.03;56.34
75157;BME280;63736;50.076;8.198;2022-10-17T09:28:41;100160.13;;;27.74;57.30
75157;BME280;63736;50.076;8.198;2022-10-17T09:31:34;100159.38;;;27.41;58.84
75157;BME280;63736;50.076;8.198;2022-10-17T09:34:08;100166.38;;;27.05;61.05
75157;BME280;63736;50.076;8.198;2022-10-17T09:36:37;100159.63;;;26.76;63.01
75157;BME280;63736;50.076;8.198;2022-10-17T09:41:36;100153.31;;;26.23;65.60
75157;BME280;63736;50.076;8.198;2022-10-17T09:44:16;100169.59;;;26.04;66.53
75157;BME280;63736;50.076;8.198;2022-10-17T09:46:49;100175.53;;;25.75;67.55
75157;BME280;63736;50.076;8.198;2022-10-17T09:49:19;100173.47;;;25.43;68.33
75157;BME280;63736;50.076;8.198;2022-10-17T09:51:47;100173.84;;;25.13;70.44
75157;BME280;63736;50.076;8.198;2022-10-17T09:54:19;100173.41;;;24.89;72.28
75157;BME280;63736;50.076;8.198;2022-10-17T09:57:01;100173.56;;;24.68;73.85
75157;BME280;63736;50.076;8.198;2022-10-17T09:59:39;100183.13;;;24.50;75.08
75157;BME280;63736;50.076;8.198;2022-10-17T10:02:17;100187.88;;;24.28;75.71
75157;BME280;63736;50.076;8.198;2022-10-17T10:05:08;100190.94;;;24.12;77.51
75157;BME280;63736;50.076;8.198;2022-10-17T10:07:40;100196.34;;;23.98;79.10
75157;BME280;63736;50.076;8.198;2022-10-17T10:10:23;100193.34;;;23.93;79.80
75157;BME280;63736;50.076;8.198;2022-10-17T10:15:38;100192.50;;;23.92;80.57
75157;BME280;63736;50.076;8.198;2022-10-17T10:23:31;100203.34;;;23.57;81.87
75157;BME280;63736;50.076;8.198;2022-10-17T10:26:00;100205.56;;;23.47;82.87
75157;BME280;63736;50.076;8.198;2022-10-17T10:28:32;100208.66;;;23.37;84.21
75157;BME280;63736;50.076;8.198;2022-10-17T10:31:01;100203.72;;;23.26;84.59
75157;BME280;63736;50.076;8.198;2022-10-17T10:33:28;100207.41;;;23.18;85.47
75157;BME280;63736;50.076;8.198;2022-10-17T10:35:59;100214.66;;;23.11;86.84
75157;BME280;63736;50.076;8.198;2022-10-17T10:38:29;100214.66;;;23.11;88.10
75157;BME280;63736;50.076;8.198;2022-10-17T10:41:07;100218.03;;;23.13;88.78
75157;BME280;63736;50.076;8.198;2022-10-17T10:43:37;100209.59;;;23.08;90.02
75157;BME280;63736;50.076;8.198;2022-10-17T10:46:18;100208.28;;;23.04;90.20
75157;BME280;63736;50.076;8.198;2022-10-17T10:48:55;100202.63;;;23.05;90.99
75157;BME280;63736;50.076;8.198;2022-10-17T10:51:30;100204.59;;;23.12;90.94
75157;BME280;63736;50.076;8.198;2022-10-17T10:54:21;100203.41;;;23.14;90.28
75157;BME280;63736;50.076;8.198;2022-10-17T10:56:55;100202.44;;;23.07;90.96
75157;BME280;63736;50.076;8.198;2022-10-17T10:59:30;100203.41;;;22.99;91.14
75157;BME280;63736;50.076;8.198;2022-10-17T11:02:18;100203.75;;;22.89;91.72
75157;BME280;63736;50.076;8.198;2022-10-17T11:07:20;100200.63;;;22.71;91.89
75157;BME280;63736;50.076;8.198;2022-10-17T11:10:02;100210.09;;;22.60;91.08
75157;BME280;63736;50.076;8.198;2022-10-17T11:12:49;100198.31;;;22.53;91.83
75157;BME280;63736;50.076;8.198;2022-10-17T11:15:46;100200.63;;;22.56;90.02
75157;BME280;63736;50.076;8.198;2022-10-17T11:18:41;100203.63;;;22.61;90.29
75157;BME280;63736;50.076;8.198;2022-10-17T11:21:18;100205.13;;;22.64;89.43
75157;BME280;63736;50.076;8.198;2022-10-17T11:23:52;100210.56;;;22.64;88.88
75157;BME280;63736;50.076;8.198;2022-10-17T11:26:26;100206.63;;;22.66;89.03
75157;BME280;63736;50.076;8.198;2022-10-17T11:28:53;100216.09;;;22.70;88.87
75157;BME280;63736;50.076;8.198;2022-10-17T11:31:20;100211.13;;;22.74;88.52
75157;BME280;63736;50.076;8.198;2022-10-17T11:33:56;100208.78;;;22.71;87.54
75157;BME280;63736;50.076;8.198;2022-10-17T11:36:29;100209.81;;;22.70;85.97
75157;BME280;63736;50.076;8.198;2022-10-17T11:39:05;100209.63;;;22.71;86.10
75157;BME280;63736;50.076;8.198;2022-10-17T11:41:34;100209.34;;;22.66;85.94
75157;BME280;63736;50.076;8.198;2022-10-17T11:46:52;100206.13;;;22.77;85.26
75157;BME280;63736;50.076;8.198;2022-10-17T11:49:22;100203.00;;;22.81;84.65
75157;BME280;63736;50.076;8.198;2022-10-17T11:51:59;100200.75;;;22.84;85.30
75157;BME280;63736;50.076;8.198;2022-10-17T11:54:38;100199.47;;;22.80;84.14
75157;BME280;63736;50.076;8.198;2022-10-17T11:57:15;100193.06;;;22.73;84.65
75157;BME280;63736;50.076;8.198;2022-10-17T12:02:52;100201.19;;;22.66;85.77
75157;BME280;63736;50.076;8.198;2022-10-17T12:05:31;100209.41;;;22.73;85.44
75157;BME280;63736;50.076;8.198;2022-10-17T12:08:04;100207.69;;;22.87;85.22
75157;BME280;63736;50.076;8.198;2022-10-17T12:10:52;100208.84;;;22.99;83.40
75157;BME280;63736;50.076;8.198;2022-10-17T12:18:43;100220.63;;;23.21;80.91
75157;BME280;63736;50.076;8.198;2022-10-17T12:21:08;100220.06;;;23.26;80.66
75157;BME280;63736;50.076;8.198;2022-10-17T12:23:34;100220.72;;;23.28;79.62
75157;BME280;63736;50.076;8.198;2022-10-17T12:26:04;100216.50;;;23.25;79.54
75157;BME280;63736;50.076;8.198;2022-10-17T12:31:08;100217.59;;;23.31;81.65
75157;BME280;63736;50.076;8.198;2022-10-17T12:33:54;100222.00;;;23.32;80.09
75157;BME280;63736;50.076;8.198;2022-10-17T12:46:44;100205.59;;;23.25;80.69
75157;BME280;63736;50.076;8.198;2022-10-17T12:52:14;100211.00;;;23.04;82.37
75157;BME280;63736;50.076;8.198;2022-10-17T12:54:45;100217.63;;;22.94;83.86
75157;BME280;63736;50.076;8.198;2022-10-17T12:59:51;100220.47;;;22.86;84.90
75157;BME280;63736;50.076;8.198;2022-10-17T13:02:20;100205.81;;;22.87;85.46
75157;BME280;63736;50.076;8.198;2022-10-17T13:04:47;100206.25;;;22.91;85.99
75157;BME280;63736;50.076;8.198;2022-10-17T13:07:20;100207.47;;;23.03;86.15
75157;BME280;63736;50.076;8.198;2022-10-17T13:09:46;100210.34;;;23.17;85.51
75157;BME280;63736;50.076;8.198;2022-10-17T13:12:24;100209.28;;;23.39;84.54
75157;BME280;63736;50.076;8.198;2022-10-17T13:14:52;100209.03;;;23.63;83.47
75157;BME280;63736;50.076;8.198;2022-10-17T13:17:26;100206.28;;;23.84;83.20
75157;BME280;63736;50.076;8.198;2022-10-17T13:19:53;100205.34;;;23.99;82.11
75157;BME280;63736;50.076;8.198;2022-10-17T13:22:20;100197.41;;;24.04;80.15
75157;BME280;63736;50.076;8.198;2022-10-17T13:24:47;100204.56;;;24.05;79.44
75157;BME280;63736;50.076;8.198;2022-10-17T13:27:34;100213.38;;;24.07;78.88
75157;BME280;63736;50.076;8.198;2022-10-17T13:30:00;100200.94;;;23.98;78.67
75157;BME280;63736;50.076;8.198;2022-10-17T13:32:36;100211.41;;;23.94;78.00
75157;BME280;63736;50.076;8.198;2022-10-17T13:35:13;100215.28;;;23.85;77.60
75157;BME280;63736;50.076;8.198;2022-10-17T13:37:40;100227.41;;;23.75;77.63
75157;BME280;63736;50.076;8.198;2022-10-17T13:40:13;100223.97;;;23.67;78.73
75157;BME280;63736;50.076;8.198;2022-10-17T13:42:40;100226.44;;;23.62;79.35
75157;BME280;63736;50.076;8.198;2022-10-17T13:45:31;100227.06;;;23.57;79.28
75157;BME280;63736;50.076;8.198;2022-10-17T13:47:59;100226.34;;;23.48;80.06
75157;BME280;63736;50.076;8.198;2022-10-17T13:50:40;100233.22;;;23.44;80.70
75157;BME280;63736;50.076;8.198;2022-10-17T13:55:37;100238.56;;;23.31;81.87
75157;BME280;63736;50.076;8.198;2022-10-17T13:58:39;100234.53;;;23.26;82.95
75157;BME280;63736;50.076;8.198;2022-10-17T14:01:06;100237.00;;;23.21;83.89
75157;BME280;63736;50.076;8.198;2022-10-17T14:03:32;100230.25;;;23.17;84.47
75157;BME280;63736;50.076;8.198;2022-10-17T14:06:19;100229.63;;;23.15;84.63
75157;BME280;63736;50.076;8.198;2022-10-17T14:08:49;100242.28;;;23.08;85.72
75157;BME280;63736;50.076;8.198;2022-10-17T14:13:58;100245.22;;;22.91;87.43
75157;BME280;63736;50.076;8.198;2022-10-17T14:16:25;100250.63;;;22.85;88.40
75157;BME280;63736;50.076;8.198;2022-10-17T14:18:51;100244.06;;;22.79;90.50
75157;BME280;63736;50.076;8.198;2022-10-17T14:21:19;100245.97;;;22.79;91.53
75157;BME280;63736;50.076;8.198;2022-10-17T14:23:45;100247.44;;;22.81;91.84
75157;BME280;63736;50.076;8.198;2022-10-17T14:26:18;100250.06;;;22.89;91.84
75157;BME280;63736;50.076;8.198;2022-10-17T14:28:48;100247.25;;;23.04;91.51